Boroughbridge, United Kingdom
Current Conditions -  °F | °C
As of 2:50 PM on Wednesday 26 Nov 2014 (Local Time) from EGXD Reporting Station
Haze Haze  
Wind Chill: 46°   Ceiling: 2300
Heat Index: 46°   Visibility: 3mi
Dew Point: 45°   Wind: 3mph
Humidity: 93%   Direction: 20°NNE
Pressure: 29.88"   Gusts: NA
Location:  54.09°N, 1.4°W
Report Text: EGXD 261450Z 02003KT 5000 HZ SCT012 OVC023 08/07 Q1012 GRN TEMPO 3500 RADZ YLO1
Loading
Personal Weather Stations






























Interactive Weather Map New forecast layout! Learn more

10-Day Weather Forecast

Advertisements
Track Severe Weather on mobile